createdAt,value
2019-01-13T00:02:01.640Z,5.50
2019-01-13T00:04:32.974Z,5.50
2019-01-13T00:07:04.634Z,5.50
2019-01-13T00:09:36.430Z,5.50
2019-01-13T00:12:08.044Z,5.50
2019-01-13T00:14:39.718Z,5.50
2019-01-13T00:17:12.440Z,5.50
2019-01-13T00:19:43.951Z,5.40
2019-01-13T00:22:15.294Z,5.40
2019-01-13T00:24:46.493Z,5.40
2019-01-13T00:27:17.963Z,5.40
2019-01-13T00:29:49.521Z,5.40
2019-01-13T00:32:20.906Z,5.40
2019-01-13T00:34:52.404Z,5.30
2019-01-13T00:37:24.172Z,5.30
2019-01-13T00:39:55.643Z,5.30
2019-01-13T00:42:27.147Z,5.30
2019-01-13T00:44:58.475Z,5.30
2019-01-13T00:47:30.087Z,5.30
2019-01-13T00:50:01.414Z,5.30
2019-01-13T00:52:33.078Z,5.30
2019-01-13T00:55:05.054Z,5.30
2019-01-13T00:57:36.663Z,5.30
2019-01-13T01:00:11.790Z,5.30
2019-01-13T01:02:45.166Z,5.30
2019-01-13T01:05:17.105Z,5.30
2019-01-13T01:07:50.391Z,5.30
2019-01-13T01:10:22.390Z,5.40
2019-01-13T01:12:53.946Z,5.30
2019-01-13T01:15:25.173Z,5.40
2019-01-13T01:17:56.723Z,5.40
2019-01-13T01:20:29.138Z,5.30
2019-01-13T01:23:01.886Z,5.30
2019-01-13T01:25:33.248Z,5.30
2019-01-13T01:28:05.185Z,5.30
2019-01-13T01:30:36.741Z,5.30
2019-01-13T01:33:08.262Z,5.20
2019-01-13T01:35:39.550Z,5.20
2019-01-13T01:38:11.030Z,5.30
2019-01-13T01:40:42.405Z,5.20
2019-01-13T01:43:13.882Z,5.10
2019-01-13T01:45:45.312Z,5.10
2019-01-13T01:48:16.929Z,5.00
2019-01-13T01:50:48.375Z,5.00
2019-01-13T01:53:20.744Z,5.00
2019-01-13T01:55:52.050Z,5.00
2019-01-13T01:58:23.537Z,5.00
2019-01-13T02:00:55.985Z,5.00
2019-01-13T02:03:27.746Z,5.00
2019-01-13T02:05:59.090Z,5.00
2019-01-13T02:08:30.547Z,5.00
2019-01-13T02:11:01.965Z,5.00
2019-01-13T02:13:33.318Z,5.00
2019-01-13T02:16:04.723Z,5.00
2019-01-13T02:18:37.156Z,5.00
2019-01-13T02:21:08.716Z,4.90
2019-01-13T02:23:40.268Z,4.90
2019-01-13T02:26:11.655Z,4.90
2019-01-13T02:28:43.340Z,4.90
2019-01-13T02:31:14.550Z,5.00
2019-01-13T02:33:46.015Z,5.00
2019-01-13T02:36:17.465Z,5.10
2019-01-13T02:38:49.390Z,5.20
2019-01-13T02:41:20.774Z,5.20
2019-01-13T02:43:52.238Z,5.20
2019-01-13T02:46:23.506Z,5.30
2019-01-13T02:48:55.055Z,5.20
2019-01-13T02:51:26.283Z,5.20
2019-01-13T02:53:58.681Z,5.20
2019-01-13T02:56:29.826Z,5.10
2019-01-13T02:59:01.338Z,5.10
2019-01-13T03:01:32.769Z,5.20
2019-01-13T03:04:04.353Z,5.20
2019-01-13T03:06:35.822Z,5.20
2019-01-13T03:09:09.801Z,5.30
2019-01-13T03:11:41.341Z,5.30
2019-01-13T03:14:12.869Z,5.20
2019-01-13T03:16:44.228Z,5.20
2019-01-13T03:19:15.679Z,5.30
2019-01-13T03:21:47.008Z,5.30
2019-01-13T03:24:18.680Z,5.30
2019-01-13T03:26:49.931Z,5.30
2019-01-13T03:29:22.315Z,5.40
2019-01-13T03:31:53.660Z,5.20
2019-01-13T03:34:25.381Z,5.10
2019-01-13T03:36:56.652Z,5.00
2019-01-13T03:39:28.450Z,4.90
2019-01-13T03:41:59.853Z,5.00
2019-01-13T03:44:31.325Z,5.00
2019-01-13T03:47:02.931Z,5.00
2019-01-13T03:49:35.522Z,5.00
2019-01-13T03:52:06.949Z,4.90
2019-01-13T03:54:38.377Z,4.90
2019-01-13T03:57:09.737Z,4.90
2019-01-13T03:59:41.185Z,4.90
2019-01-13T04:02:12.704Z,4.90
2019-01-13T04:04:44.220Z,4.90
2019-01-13T04:07:15.498Z,4.80
2019-01-13T04:09:48.175Z,4.90
2019-01-13T04:12:19.518Z,5.10
2019-01-13T04:14:51.077Z,5.10
2019-01-13T04:17:22.736Z,5.10
2019-01-13T04:19:55.265Z,5.00
2019-01-13T04:22:26.699Z,4.90
2019-01-13T04:24:58.132Z,4.90
2019-01-13T04:27:29.437Z,4.90
2019-01-13T04:30:01.041Z,4.80
2019-01-13T04:32:32.371Z,4.80
2019-01-13T04:35:03.742Z,4.80
2019-01-13T04:37:35.098Z,4.70
2019-01-13T04:40:07.942Z,4.70
2019-01-13T04:42:39.374Z,4.70
2019-01-13T04:45:12.958Z,4.70
2019-01-13T04:48:03.226Z,4.70
2019-01-13T04:50:35.718Z,4.70
2019-01-13T04:53:07.137Z,4.70
2019-01-13T04:55:39.974Z,4.70
2019-01-13T04:58:11.449Z,4.80
2019-01-13T05:00:42.965Z,4.80
2019-01-13T05:03:14.399Z,4.70
2019-01-13T05:05:45.683Z,4.80
2019-01-13T05:08:16.989Z,4.80
2019-01-13T05:10:48.578Z,4.70
2019-01-13T05:13:19.897Z,4.80
2019-01-13T05:15:51.833Z,4.80
2019-01-13T05:18:23.210Z,4.90
2019-01-13T05:20:55.167Z,5.00
2019-01-13T05:23:26.763Z,5.00
2019-01-13T05:25:58.405Z,5.00
2019-01-13T05:28:29.909Z,5.00
2019-01-13T05:31:01.949Z,5.00
2019-01-13T05:33:33.353Z,5.00
2019-01-13T05:36:05.779Z,5.00
2019-01-13T05:38:37.103Z,4.90
2019-01-13T05:41:08.521Z,4.80
2019-01-13T05:43:40.012Z,4.80
2019-01-13T05:46:11.666Z,4.80
2019-01-13T05:48:43.092Z,4.70
2019-01-13T05:51:14.596Z,4.70
2019-01-13T05:53:45.826Z,4.60
2019-01-13T05:56:17.337Z,4.70
2019-01-13T05:58:48.868Z,4.70
2019-01-13T06:01:20.373Z,4.60
2019-01-13T06:03:51.722Z,4.60
2019-01-13T06:06:24.278Z,4.60
2019-01-13T06:08:55.455Z,4.60
2019-01-13T06:11:27.006Z,4.60
2019-01-13T06:13:58.378Z,4.60
2019-01-13T06:16:30.836Z,4.70
2019-01-13T06:19:02.230Z,4.70
2019-01-13T06:21:33.823Z,4.70
2019-01-13T06:24:05.163Z,4.70
2019-01-13T06:26:36.734Z,4.80
2019-01-13T06:29:08.281Z,4.70
2019-01-13T06:31:40.698Z,4.70
2019-01-13T06:34:11.978Z,4.70
2019-01-13T06:36:43.316Z,4.80
2019-01-13T06:39:14.711Z,4.80
2019-01-13T06:41:46.151Z,4.90
2019-01-13T06:44:17.524Z,4.80
2019-01-13T06:46:49.139Z,4.90
2019-01-13T06:49:20.822Z,4.80
2019-01-13T06:51:52.735Z,4.90
2019-01-13T06:54:25.075Z,4.90
2019-01-13T06:56:58.728Z,5.00
2019-01-13T06:59:30.143Z,4.90
2019-01-13T07:02:03.464Z,5.00
2019-01-13T07:04:35.128Z,5.00
2019-01-13T07:07:06.724Z,5.00
2019-01-13T07:09:38.115Z,5.00
2019-01-13T07:12:09.769Z,5.10
2019-01-13T07:14:41.211Z,5.10
2019-01-13T07:17:14.667Z,5.10
2019-01-13T07:19:46.076Z,5.10
2019-01-13T07:22:17.609Z,5.20
2019-01-13T07:24:49.026Z,5.20
2019-01-13T07:27:20.602Z,5.30
2019-01-13T07:29:51.968Z,5.30
2019-01-13T07:32:23.983Z,5.30
2019-01-13T07:34:55.221Z,5.30
2019-01-13T07:37:27.841Z,5.30
2019-01-13T07:39:59.250Z,5.30
2019-01-13T07:42:31.105Z,5.30
2019-01-13T07:45:02.584Z,5.40
2019-01-13T07:47:34.182Z,5.40
2019-01-13T07:50:06.310Z,5.40
2019-01-13T07:52:38.014Z,5.40
2019-01-13T07:55:10.957Z,5.40
2019-01-13T07:57:44.627Z,5.40
2019-01-13T08:00:25.306Z,5.40
2019-01-13T08:02:56.731Z,5.40
2019-01-13T08:05:28.429Z,5.50
2019-01-13T08:08:00.303Z,5.40
2019-01-13T08:10:31.787Z,5.40
2019-01-13T08:13:04.198Z,5.40
2019-01-13T08:15:35.632Z,5.50
2019-01-13T08:18:08.351Z,5.50
2019-01-13T08:20:39.771Z,5.40
2019-01-13T08:23:11.195Z,5.50
2019-01-13T08:25:42.702Z,5.50
2019-01-13T08:28:14.102Z,5.50
2019-01-13T08:30:45.435Z,5.50
2019-01-13T08:33:16.875Z,5.50
2019-01-13T08:35:48.315Z,5.40
2019-01-13T08:38:19.571Z,5.40
2019-01-13T08:40:51.037Z,5.50
2019-01-13T08:43:22.404Z,5.50
2019-01-13T08:45:53.806Z,5.60
2019-01-13T08:48:25.112Z,5.60
2019-01-13T08:50:56.650Z,5.60
2019-01-13T08:53:27.885Z,5.60
2019-01-13T08:55:59.427Z,5.50
2019-01-13T08:58:31.883Z,5.50
2019-01-13T09:01:03.373Z,5.40
2019-01-13T09:03:34.743Z,5.30
2019-01-13T09:06:06.135Z,5.40
2019-01-13T09:08:37.557Z,5.40
2019-01-13T09:11:09.063Z,5.50
2019-01-13T09:13:41.352Z,5.50
2019-01-13T09:16:12.894Z,5.50
2019-01-13T09:18:44.261Z,5.60
2019-01-13T09:21:15.710Z,5.60
2019-01-13T09:23:47.093Z,5.60
2019-01-13T09:26:18.655Z,5.60
2019-01-13T09:28:50.131Z,5.60
2019-01-13T09:31:21.686Z,5.60
2019-01-13T09:33:54.097Z,5.60
2019-01-13T09:36:25.618Z,5.60
2019-01-13T09:38:58.115Z,5.70
2019-01-13T09:41:29.537Z,5.80
2019-01-13T09:44:00.745Z,5.90
2019-01-13T09:46:33.251Z,6.00
2019-01-13T09:49:05.339Z,6.10
2019-01-13T09:51:36.950Z,6.10
2019-01-13T09:54:08.239Z,6.00
2019-01-13T09:56:39.750Z,6.10
2019-01-13T09:59:11.114Z,6.10
2019-01-13T10:01:42.765Z,6.10
2019-01-13T10:04:14.084Z,6.00
2019-01-13T10:06:45.646Z,6.10
2019-01-13T10:09:16.884Z,6.20
2019-01-13T10:11:48.469Z,6.10
2019-01-13T10:14:19.726Z,6.20
2019-01-13T10:16:51.191Z,6.20
2019-01-13T10:19:22.484Z,6.20
2019-01-13T10:21:53.875Z,6.30
2019-01-13T10:24:25.284Z,6.40
2019-01-13T10:26:56.787Z,6.40
2019-01-13T10:29:28.300Z,6.60
2019-01-13T10:31:59.756Z,6.60
2019-01-13T10:34:32.281Z,6.40
2019-01-13T10:37:03.918Z,6.50
2019-01-13T10:39:35.244Z,6.50
2019-01-13T10:42:06.863Z,6.50
2019-01-13T10:44:50.006Z,6.60
2019-01-13T10:47:21.680Z,6.60
2019-01-13T10:49:53.050Z,6.70
2019-01-13T10:52:24.558Z,6.60
2019-01-13T10:54:55.941Z,6.70
2019-01-13T10:57:27.570Z,6.70
2019-01-13T10:59:59.012Z,6.70
2019-01-13T11:02:30.316Z,6.70
2019-01-13T11:05:01.580Z,6.60
2019-01-13T11:07:33.107Z,6.60
2019-01-13T11:10:05.595Z,6.50
2019-01-13T11:12:37.113Z,6.50
2019-01-13T11:15:09.081Z,6.60
2019-01-13T11:17:59.892Z,6.60
2019-01-13T11:20:37.286Z,6.50
2019-01-13T11:23:09.338Z,6.50
2019-01-13T11:25:40.901Z,6.40
2019-01-13T11:28:12.324Z,6.40
2019-01-13T11:30:44.241Z,6.50
2019-01-13T11:33:15.542Z,6.40
2019-01-13T11:35:47.006Z,6.30
2019-01-13T11:38:18.497Z,6.30
2019-01-13T11:40:49.781Z,6.30
2019-01-13T11:43:21.175Z,6.20
2019-01-13T11:45:53.640Z,6.20
2019-01-13T11:48:25.293Z,6.20
2019-01-13T11:50:56.508Z,6.20
2019-01-13T11:53:28.131Z,6.10
2019-01-13T11:55:59.582Z,6.10
2019-01-13T11:58:31.041Z,6.10
2019-01-13T12:01:02.376Z,6.10
2019-01-13T12:03:46.399Z,6.20
2019-01-13T12:06:18.357Z,6.10
2019-01-13T12:08:49.783Z,6.00
2019-01-13T12:11:21.235Z,6.00
2019-01-13T12:13:52.499Z,6.00
2019-01-13T12:16:24.032Z,6.10
2019-01-13T12:18:55.554Z,6.00
2019-01-13T12:21:26.979Z,5.90
2019-01-13T12:23:58.781Z,6.00
2019-01-13T12:26:30.362Z,6.00
2019-01-13T12:29:01.823Z,6.00
2019-01-13T12:31:33.337Z,5.90
2019-01-13T12:34:04.730Z,6.00
2019-01-13T12:36:36.041Z,5.90
2019-01-13T12:39:12.496Z,5.90
2019-01-13T12:41:44.117Z,5.90
2019-01-13T12:44:15.402Z,5.90
2019-01-13T12:46:47.366Z,5.90
2019-01-13T12:49:19.920Z,6.00
2019-01-13T12:51:51.365Z,6.00
2019-01-13T12:54:22.901Z,5.90
2019-01-13T12:56:54.438Z,6.00
2019-01-13T12:59:27.373Z,6.00
2019-01-13T13:01:58.856Z,5.90
2019-01-13T13:04:31.059Z,5.90
2019-01-13T13:07:02.458Z,5.90
2019-01-13T13:09:34.822Z,5.90
2019-01-13T13:12:07.339Z,5.80
2019-01-13T13:14:38.886Z,5.80
2019-01-13T13:17:10.427Z,5.80
2019-01-13T13:19:42.016Z,5.90
2019-01-13T13:22:13.487Z,5.90
2019-01-13T13:24:45.009Z,5.90
2019-01-13T13:27:16.438Z,5.90
2019-01-13T13:29:47.798Z,5.90
2019-01-13T13:32:19.150Z,5.90
2019-01-13T13:34:50.816Z,5.90
2019-01-13T13:37:22.386Z,5.80
2019-01-13T13:39:53.812Z,5.80
2019-01-13T13:42:26.538Z,5.80
2019-01-13T13:44:57.967Z,5.80
2019-01-13T13:47:29.500Z,5.80
2019-01-13T13:50:01.953Z,5.80
2019-01-13T13:52:33.298Z,5.80
2019-01-13T13:55:07.753Z,5.80
2019-01-13T13:57:39.221Z,5.80
2019-01-13T14:00:23.368Z,5.80
2019-01-13T14:02:54.724Z,5.80
2019-01-13T14:05:26.457Z,5.80
2019-01-13T14:07:58.237Z,5.80
2019-01-13T14:10:43.634Z,5.80
2019-01-13T14:13:15.000Z,5.80
2019-01-13T14:15:46.469Z,5.80
2019-01-13T14:18:17.817Z,5.80
2019-01-13T14:20:49.214Z,5.70
2019-01-13T14:23:20.729Z,5.70
2019-01-13T14:25:52.684Z,5.70
2019-01-13T14:28:24.296Z,5.70
2019-01-13T14:30:55.857Z,5.60
2019-01-13T14:33:27.279Z,5.60
2019-01-13T14:35:58.516Z,5.60
2019-01-13T14:38:30.088Z,5.60
2019-01-13T14:41:01.672Z,5.60
2019-01-13T14:43:33.173Z,5.60
2019-01-13T14:46:04.834Z,5.60
2019-01-13T14:48:36.269Z,5.60
2019-01-13T14:51:08.136Z,5.50
2019-01-13T14:53:39.513Z,5.50
2019-01-13T14:56:11.038Z,5.50
2019-01-13T14:58:43.362Z,5.50
2019-01-13T15:01:14.783Z,5.50
2019-01-13T15:03:46.198Z,5.50
2019-01-13T15:06:17.515Z,5.40
2019-01-13T15:08:48.900Z,5.50
2019-01-13T15:11:20.379Z,5.50
2019-01-13T15:13:51.872Z,5.50
2019-01-13T15:16:23.157Z,5.50
2019-01-13T15:18:54.432Z,5.50
2019-01-13T15:21:26.822Z,5.50
2019-01-13T15:23:58.304Z,5.50
2019-01-13T15:26:30.259Z,5.40
2019-01-13T15:29:01.688Z,5.40
2019-01-13T15:31:33.057Z,5.50
2019-01-13T15:34:07.299Z,5.40
2019-01-13T15:36:37.539Z,5.40
2019-01-13T15:39:10.209Z,5.40
2019-01-13T15:41:41.616Z,5.40
2019-01-13T15:44:13.206Z,5.40
2019-01-13T15:46:44.492Z,5.50
2019-01-13T15:49:15.929Z,5.40
2019-01-13T15:51:47.194Z,5.40
2019-01-13T15:54:19.192Z,5.40
2019-01-13T15:56:50.768Z,5.40
2019-01-13T15:59:22.208Z,5.40
2019-01-13T16:01:53.458Z,5.40
2019-01-13T16:04:25.146Z,5.40
2019-01-13T16:06:56.593Z,5.40
2019-01-13T16:09:28.170Z,5.40
2019-01-13T16:11:59.682Z,5.40
2019-01-13T16:14:31.133Z,5.40
2019-01-13T16:17:03.073Z,5.40
2019-01-13T16:19:34.345Z,5.40
2019-01-13T16:22:06.539Z,5.40
2019-01-13T16:24:38.768Z,5.30
2019-01-13T16:27:10.195Z,5.40
2019-01-13T16:29:41.819Z,5.30
2019-01-13T16:32:13.461Z,5.40
2019-01-13T16:34:56.350Z,5.30
2019-01-13T16:37:27.817Z,5.30
2019-01-13T16:40:00.722Z,5.30
2019-01-13T16:42:32.111Z,5.30
2019-01-13T16:45:03.967Z,5.30
2019-01-13T16:47:35.452Z,5.30
2019-01-13T16:50:14.502Z,5.30
2019-01-13T16:52:48.250Z,5.30
2019-01-13T16:55:19.908Z,5.30
2019-01-13T16:57:51.644Z,5.30
2019-01-13T17:00:24.826Z,5.20
2019-01-13T17:02:56.410Z,5.20
2019-01-13T17:05:29.707Z,5.30
2019-01-13T17:08:01.129Z,5.20
2019-01-13T17:10:33.153Z,5.20
2019-01-13T17:13:16.012Z,5.20
2019-01-13T17:15:47.529Z,5.30
2019-01-13T17:18:18.988Z,5.20
2019-01-13T17:20:50.938Z,5.20
2019-01-13T17:23:23.784Z,5.20
2019-01-13T17:25:55.429Z,5.20
2019-01-13T17:28:27.766Z,5.20
2019-01-13T17:30:59.309Z,5.20
2019-01-13T17:33:31.060Z,5.20
2019-01-13T17:36:02.674Z,5.10
2019-01-13T17:38:34.767Z,5.10
2019-01-13T17:41:06.494Z,5.10
2019-01-13T17:43:39.411Z,5.10
2019-01-13T17:46:11.310Z,5.10
2019-01-13T17:48:42.744Z,5.10
2019-01-13T17:51:15.274Z,5.10
2019-01-13T17:53:47.102Z,5.10
2019-01-13T17:56:30.662Z,5.10
2019-01-13T17:59:02.199Z,5.10
2019-01-13T18:01:43.238Z,5.10
2019-01-13T18:04:26.253Z,5.10
2019-01-13T18:06:58.093Z,5.10
2019-01-13T18:09:29.619Z,5.10
2019-01-13T18:12:01.112Z,5.10
2019-01-13T18:14:32.765Z,5.10
2019-01-13T18:17:06.518Z,5.10
2019-01-13T18:19:37.214Z,5.10
2019-01-13T18:22:08.750Z,5.10
2019-01-13T18:24:41.092Z,5.00
2019-01-13T18:27:12.805Z,5.00
2019-01-13T18:29:44.221Z,5.00
2019-01-13T18:32:15.825Z,5.00
2019-01-13T18:34:50.356Z,5.00
2019-01-13T18:37:20.500Z,5.00
2019-01-13T18:39:51.798Z,5.00
2019-01-13T18:42:23.434Z,5.00
2019-01-13T18:44:54.647Z,5.00
2019-01-13T18:47:26.434Z,5.00
2019-01-13T18:49:58.049Z,5.00
2019-01-13T18:52:30.117Z,5.00
2019-01-13T18:55:01.833Z,5.00
2019-01-13T18:57:33.513Z,5.00
2019-01-13T19:00:08.961Z,5.00
2019-01-13T19:02:40.535Z,5.00
2019-01-13T19:05:13.192Z,5.00
2019-01-13T19:07:45.025Z,5.00
2019-01-13T19:11:06.471Z,5.00
2019-01-13T19:14:14.501Z,5.00
2019-01-13T19:17:09.310Z,5.00
2019-01-13T19:19:57.941Z,5.00
2019-01-13T19:22:31.684Z,5.00
2019-01-13T19:25:20.566Z,5.10
2019-01-13T19:27:51.854Z,5.00
2019-01-13T19:30:24.261Z,5.00
2019-01-13T19:32:55.598Z,5.00
2019-01-13T19:35:27.356Z,5.00
2019-01-13T19:37:58.984Z,5.00
2019-01-13T19:40:30.471Z,5.00
2019-01-13T19:43:01.877Z,5.00
2019-01-13T19:45:33.505Z,5.00
2019-01-13T19:48:05.227Z,5.00
2019-01-13T19:50:37.633Z,5.00
2019-01-13T19:53:09.054Z,5.00
2019-01-13T19:55:40.651Z,4.90
2019-01-13T19:58:11.947Z,5.00
2019-01-13T20:00:43.319Z,5.00
2019-01-13T20:03:14.838Z,5.00
2019-01-13T20:05:46.351Z,5.00
2019-01-13T20:08:17.870Z,5.00
2019-01-13T20:10:49.334Z,5.00
2019-01-13T20:13:21.771Z,5.00
2019-01-13T20:15:53.398Z,5.00
2019-01-13T20:18:24.689Z,5.00
2019-01-13T20:20:56.247Z,4.90
2019-01-13T20:23:27.793Z,4.90
2019-01-13T20:25:59.162Z,4.90
2019-01-13T20:28:30.793Z,4.90
2019-01-13T20:31:02.471Z,4.90
2019-01-13T20:33:33.958Z,4.90
2019-01-13T20:36:05.589Z,4.90
2019-01-13T20:38:37.122Z,4.90
2019-01-13T20:41:09.178Z,4.90
2019-01-13T20:43:40.536Z,4.90
2019-01-13T20:46:11.972Z,4.90
2019-01-13T20:48:43.518Z,4.90
2019-01-13T20:51:14.988Z,4.90
2019-01-13T20:53:46.475Z,4.90
2019-01-13T20:56:17.899Z,4.90
2019-01-13T20:58:49.514Z,4.90
2019-01-13T21:01:21.951Z,4.90
2019-01-13T21:03:53.900Z,4.90
2019-01-13T21:06:25.443Z,4.90
2019-01-13T21:08:57.041Z,4.90
2019-01-13T21:11:29.585Z,4.90
2019-01-13T21:14:02.035Z,4.90
2019-01-13T21:16:33.684Z,4.90
2019-01-13T21:19:05.179Z,4.90
2019-01-13T21:21:36.665Z,4.90
2019-01-13T21:24:08.069Z,4.90
2019-01-13T21:26:41.379Z,4.90
2019-01-13T21:29:12.936Z,4.90
2019-01-13T21:31:44.608Z,4.90
2019-01-13T21:34:16.999Z,4.90
2019-01-13T21:36:48.633Z,4.90
2019-01-13T21:39:31.835Z,4.90
2019-01-13T21:42:03.183Z,4.90
2019-01-13T21:44:34.773Z,4.90
2019-01-13T21:47:06.487Z,4.90
2019-01-13T21:49:38.037Z,4.90
2019-01-13T21:52:09.592Z,4.90
2019-01-13T21:54:41.032Z,4.90
2019-01-13T21:57:12.641Z,4.90
2019-01-13T21:59:44.144Z,4.90
2019-01-13T22:02:15.836Z,4.80
2019-01-13T22:04:47.421Z,4.80
2019-01-13T22:07:18.896Z,4.90
2019-01-13T22:09:50.189Z,4.80
2019-01-13T22:12:21.792Z,4.80
2019-01-13T22:14:54.488Z,4.70
2019-01-13T22:17:26.083Z,4.80
2019-01-13T22:19:57.470Z,4.80
2019-01-13T22:22:29.095Z,4.80
2019-01-13T22:25:00.726Z,4.80
2019-01-13T22:27:33.174Z,4.80
2019-01-13T22:30:04.836Z,4.90
2019-01-13T22:32:36.323Z,4.80
2019-01-13T22:35:08.787Z,4.70
2019-01-13T22:37:40.315Z,4.70
2019-01-13T22:40:14.059Z,4.70
2019-01-13T22:42:45.959Z,4.80
2019-01-13T22:45:21.069Z,4.80
2019-01-13T22:47:52.709Z,4.70
2019-01-13T22:50:24.298Z,4.80
2019-01-13T22:52:55.724Z,4.90
2019-01-13T22:55:27.205Z,5.00
2019-01-13T22:57:58.616Z,4.90
2019-01-13T23:00:57.495Z,4.90
2019-01-13T23:03:29.048Z,4.80
2019-01-13T23:06:19.333Z,4.80
2019-01-13T23:08:50.756Z,4.80
2019-01-13T23:11:33.670Z,4.80
2019-01-13T23:14:06.746Z,4.80
2019-01-13T23:16:38.490Z,4.80
2019-01-13T23:19:10.300Z,4.80
2019-01-13T23:21:41.906Z,4.80
2019-01-13T23:24:14.378Z,4.80
2019-01-13T23:26:45.808Z,4.80
2019-01-13T23:29:17.297Z,4.80
2019-01-13T23:31:48.932Z,4.80
2019-01-13T23:34:20.387Z,4.80
2019-01-13T23:36:51.893Z,4.80
2019-01-13T23:39:23.455Z,4.80
2019-01-13T23:41:55.210Z,4.80
2019-01-13T23:44:26.845Z,4.80
2019-01-13T23:46:59.568Z,4.70
2019-01-13T23:49:31.095Z,4.80
2019-01-13T23:52:02.706Z,4.70
2019-01-13T23:54:35.226Z,4.70
2019-01-13T23:57:08.762Z,4.70
2019-01-13T23:59:40.872Z,4.80
